Accueil
METAR-TAF:

METAR-TAF

Aéroports :

Rarotonga, Îles Cook

Aéroport international de Rarotonga

latitude: 21-12S, longitude: 159-49W, altitude: 7 m

Observation

Le bulletin a été fait il y a 41 minutes, à 22:00 UTC
Vent 6 kt de ouest/sud-ouest
Température 25°C
Humidité 57%
Pression 1019 hPa
Visibilité 10 km ou plus
Quelques nuages à une hauteur de 3000 ft

METAR: NCRG 232200Z 24006KT 9999 FEW030 25/16 Q1019

Heure: 12:41 (22:41 UTC)

Prévision

Le bulletin a été fait il y a 5 heures et 38 minutes, à 17:03 UTC
Prévision valable du 23 à 18 UTC au 24 à 18 UTC
Vent 8 kt de sud-est
Visibilité 10 km ou plus
Quelques nuages à une hauteur de 2000 ft

TAF: NCRG 231703Z 2318/2418 14008KT 9999 FEW020

Observations et prévisions météorologiques de plus de 4000 aéroports (messages METAR et TAF).

Les stations disponibles sont représentées par des disques jaunes et rouges sur la carte.

Passer la souris dessus pour voir le nom de la station.

Cliquer dessus pour voir les observations et prévisions météorologiques.

Pour changer de carte: cliquez sur les boutons verts avec une croix noire pour zoomer, sur le bouton vert avec un tiret pour effectuer un zoom arrière, ou sur les flèches vertes pour les cartes adjacentes.


METAR-TAF: